Sovereign — 9HUE9 — position and weather

sailwx.info

Track history (hours):
 
Tides and Currents Weather Stations Pressure Air Temp Water Temp Dewpoint Dewpoint Depression Visibility Wind Speed Wind Dir Waves Ship Positions

Sovereign

Last reported at 2019-Dec-15 00:42 UTC. Time now 2019-Dec-15 11:12 UTC.
Position S 23°11' W 043°23'.

Length 269 m; draft 7.8 m.

Type: Passenger vessel. MMSI: 249539000.

Date/timePositionNaut miles runAvg speedWind from/ knotsBaromVisibWave heightAir tempDewpointWater temp
2019-Dec-15 00:42S 23°11' W 043°23'811.8
2019-Dec-15 00:00S 23°06' W 043°16'611.5
2019-Dec-14 23:30S 23°03' W 043°11'9 1.5
2019-Dec-14 17:29S 22°54' W 043°11'0 0.0
2019-Dec-14 15:29S 22°54' W 043°11'0 0.0
2019-Dec-14 14:56S 22°54' W 043°11'0 0.0
2019-Dec-14 14:29S 22°54' W 043°11'0 0.0
2019-Dec-14 12:29S 22°54' W 043°11'8 3.9
2019-Dec-14 10:30S 23°01' W 043°09'1313.3
2019-Dec-14 09:30S 23°13' W 043°17'3714.8
2019-Dec-14 06:59S 23°29' W 043°53'13610.9
2019-Dec-13 18:27S 23°57' W 046°19'0 0.0
2019-Dec-13 16:57S 23°57' W 046°19'0 0.0
2019-Dec-13 15:57S 23°57' W 046°19'0 0.0
2019-Dec-13 12:57S 23°57' W 046°19'4 0.8
2019-Dec-13 08:30S 24°00' W 046°20'  
2019-Dec-09 21:47S 23°60' W 046°20'3 2.8
2019-Dec-09 20:49S 23°57' W 046°19'0 0.0
2019-Dec-09 20:23S 23°57' W 046°19'0 0.0
2019-Dec-09 19:59S 23°57' W 046°19'0 0.0
2019-Dec-09 17:49S 23°57' W 046°19'  
Track history (hours):
 
Tides and Currents Weather Stations Pressure Air Temp Water Temp Dewpoint Dewpoint Depression Visibility Wind Speed Wind Dir Waves Ship Positions

Sovereign

Last reported at 2019-Dec-15 00:42 UTC. Time now 2019-Dec-15 11:12 UTC.
Position S 23°11' W 043°23'.

Length 269 m; draft 7.8 m.

Type: Passenger vessel. MMSI: 249539000.

Date/timePositionNaut miles runAvg speedWind from/ knotsBaromVisibWave heightAir tempDewpointWater temp
2019-Dec-15 00:42S 23°11' W 043°23'811.8
2019-Dec-15 00:00S 23°06' W 043°16'611.5
2019-Dec-14 23:30S 23°03' W 043°11'9 1.5
2019-Dec-14 17:29S 22°54' W 043°11'0 0.0
2019-Dec-14 15:29S 22°54' W 043°11'0 0.0
2019-Dec-14 14:56S 22°54' W 043°11'0 0.0
2019-Dec-14 14:29S 22°54' W 043°11'0 0.0
2019-Dec-14 12:29S 22°54' W 043°11'8 3.9
2019-Dec-14 10:30S 23°01' W 043°09'1313.3
2019-Dec-14 09:30S 23°13' W 043°17'3714.8
2019-Dec-14 06:59S 23°29' W 043°53'13610.9
2019-Dec-13 18:27S 23°57' W 046°19'0 0.0
2019-Dec-13 16:57S 23°57' W 046°19'0 0.0
2019-Dec-13 15:57S 23°57' W 046°19'0 0.0
2019-Dec-13 12:57S 23°57' W 046°19'4 0.8
2019-Dec-13 08:30S 24°00' W 046°20'  
2019-Dec-09 21:47S 23°60' W 046°20'3 2.8
2019-Dec-09 20:49S 23°57' W 046°19'0 0.0
2019-Dec-09 20:23S 23°57' W 046°19'0 0.0
2019-Dec-09 19:59S 23°57' W 046°19'0 0.0
2019-Dec-09 17:49S 23°57' W 046°19'  

Dump ship's entire track history